createdAt,value
2022-08-24T00:04:05.886Z,100928.16
2022-08-24T00:09:30.384Z,100943.13
2022-08-24T00:14:54.925Z,100945.75
2022-08-24T00:20:20.611Z,100949.88
2022-08-24T00:25:44.335Z,100957.66
2022-08-24T00:31:08.807Z,100953.25
2022-08-24T00:36:35.068Z,100948.81
2022-08-24T00:41:58.902Z,100945.50
2022-08-24T00:47:26.924Z,100965.75
2022-08-24T00:52:56.270Z,100954.41
2022-08-24T00:58:23.128Z,100961.75
2022-08-24T01:03:51.438Z,100961.00
2022-08-24T01:09:19.353Z,100969.31
2022-08-24T01:14:42.975Z,100967.97
2022-08-24T01:20:08.076Z,100972.28
2022-08-24T01:25:34.608Z,100970.38
2022-08-24T01:30:59.909Z,100986.59
2022-08-24T01:36:32.487Z,100992.44
2022-08-24T01:41:58.929Z,100993.31
2022-08-24T01:47:23.526Z,101006.13
2022-08-24T01:53:05.058Z,101009.81
2022-08-24T01:58:35.784Z,101016.16
2022-08-24T02:04:03.396Z,101021.97
2022-08-24T02:09:31.697Z,101018.41
2022-08-24T02:15:02.705Z,101022.88
2022-08-24T02:20:27.620Z,101028.16
2022-08-24T02:25:52.056Z,101036.69
2022-08-24T02:31:17.344Z,101034.22
2022-08-24T02:36:44.586Z,101038.97
2022-08-24T02:42:09.606Z,101041.44
2022-08-24T02:47:38.874Z,101043.41
2022-08-24T02:53:04.948Z,101048.97
2022-08-24T02:58:29.844Z,101047.31
2022-08-24T03:03:56.831Z,101048.69
2022-08-24T03:09:23.366Z,101048.44
2022-08-24T03:14:48.611Z,101054.56
2022-08-24T03:20:16.885Z,101045.72
2022-08-24T03:25:41.436Z,101051.53
2022-08-24T03:31:10.147Z,101058.72
2022-08-24T03:36:36.419Z,101054.56
2022-08-24T03:42:01.151Z,101062.03
2022-08-24T03:47:25.855Z,101056.19
2022-08-24T03:52:52.060Z,101058.69
2022-08-24T03:58:17.569Z,101061.19
2022-08-24T04:03:43.451Z,101067.28
2022-08-24T04:09:11.984Z,101075.00
2022-08-24T04:14:38.838Z,101070.84
2022-08-24T04:20:09.475Z,101066.94
2022-08-24T04:25:44.993Z,101079.38
2022-08-24T04:31:09.185Z,101074.94
2022-08-24T04:36:38.891Z,101082.63
2022-08-24T04:42:04.265Z,101088.94
2022-08-24T04:47:33.293Z,101086.34
2022-08-24T04:52:58.824Z,101082.38
2022-08-24T04:58:23.886Z,101080.59
2022-08-24T05:03:50.427Z,101085.84
2022-08-24T05:09:14.006Z,101090.09
2022-08-24T05:14:41.535Z,101087.50
2022-08-24T05:20:05.891Z,101082.94
2022-08-24T05:25:29.973Z,101078.03
2022-08-24T05:30:54.886Z,101077.34
2022-08-24T05:36:19.914Z,101074.19
2022-08-24T05:41:44.764Z,101080.69
2022-08-24T05:47:20.826Z,101078.25
2022-08-24T05:52:46.796Z,101075.00
2022-08-24T05:58:10.942Z,101076.84
2022-08-24T06:03:38.699Z,101076.16
2022-08-24T06:09:04.504Z,101065.22
2022-08-24T06:14:30.907Z,101074.53
2022-08-24T06:19:58.973Z,101059.81
2022-08-24T06:25:41.183Z,101060.13
2022-08-24T06:31:07.170Z,101054.78
2022-08-24T06:36:33.262Z,101061.88
2022-08-24T06:41:57.339Z,101047.28
2022-08-24T06:47:28.016Z,101060.66
2022-08-24T06:52:57.970Z,101046.31
2022-08-24T06:58:23.105Z,101036.09
2022-08-24T07:03:47.469Z,101030.09
2022-08-24T07:09:33.928Z,101028.84
2022-08-24T07:14:58.135Z,101024.78
2022-08-24T07:20:22.715Z,101025.47
2022-08-24T07:26:08.076Z,101017.78
2022-08-24T07:31:35.749Z,101005.00
2022-08-24T07:37:40.249Z,100997.31
2022-08-24T07:43:07.814Z,101004.72
2022-08-24T07:48:33.535Z,100994.66
2022-08-24T07:54:02.897Z,100987.59
2022-08-24T07:59:39.824Z,100996.38
2022-08-24T08:05:05.892Z,100988.75
2022-08-24T08:10:31.192Z,100998.06
2022-08-24T08:16:01.601Z,100997.31
2022-08-24T08:21:45.658Z,100977.53
2022-08-24T08:27:12.566Z,100983.66
2022-08-24T08:32:39.358Z,100984.22
2022-08-24T08:38:05.108Z,100992.84
2022-08-24T08:43:39.282Z,100992.59
2022-08-24T08:49:16.673Z,100992.44
2022-08-24T08:54:45.988Z,100990.31
2022-08-24T09:00:17.391Z,100976.59
2022-08-24T09:06:05.219Z,100966.25
2022-08-24T09:11:38.156Z,100981.66
2022-08-24T09:17:13.184Z,100977.94
2022-08-24T09:22:41.275Z,100970.69
2022-08-24T09:28:14.519Z,100967.56
2022-08-24T09:33:45.711Z,100962.91
2022-08-24T09:39:20.161Z,100963.25
2022-08-24T09:45:04.598Z,100961.97
2022-08-24T09:50:47.331Z,100956.72
2022-08-24T09:56:25.627Z,100963.94
2022-08-24T10:01:53.393Z,100958.63
2022-08-24T10:07:20.885Z,100963.06
2022-08-24T10:12:59.957Z,100942.09
2022-08-24T10:18:37.038Z,100945.31
2022-08-24T10:24:14.575Z,100966.22
2022-08-24T10:29:58.154Z,100965.69
2022-08-24T10:35:27.029Z,100970.31
2022-08-24T10:41:01.888Z,100977.06
2022-08-24T10:46:49.712Z,100967.88
2022-08-24T10:52:38.103Z,100959.44
2022-08-24T10:58:14.592Z,100949.94
2022-08-24T11:03:49.695Z,100953.06
2022-08-24T11:09:19.867Z,100952.59
2022-08-24T11:14:48.866Z,100956.94
2022-08-24T11:20:26.593Z,100949.91
2022-08-24T11:25:58.128Z,100928.69
2022-08-24T11:31:30.911Z,100945.34
2022-08-24T11:36:59.765Z,100937.59
2022-08-24T11:42:30.563Z,100947.31
2022-08-24T11:48:05.305Z,100944.22
2022-08-24T11:59:13.779Z,100932.63
2022-08-24T12:04:43.114Z,100927.81
2022-08-24T12:10:17.017Z,100931.66
2022-08-24T12:15:51.801Z,100911.72
2022-08-24T12:21:18.667Z,100921.13
2022-08-24T12:26:45.347Z,100927.28
2022-08-24T12:32:11.800Z,100918.31
2022-08-24T12:37:37.623Z,100914.06
2022-08-24T12:43:05.641Z,100917.19
2022-08-24T12:48:34.049Z,100932.47
2022-08-24T12:54:06.000Z,100923.94
2022-08-24T12:59:37.124Z,100916.97
2022-08-24T13:05:05.476Z,100908.47
2022-08-24T13:10:38.896Z,100913.63
2022-08-24T13:16:05.662Z,100915.88
2022-08-24T13:21:40.396Z,100911.59
2022-08-24T13:27:28.706Z,100910.19
2022-08-24T13:32:59.816Z,100918.19
2022-08-24T13:38:43.725Z,100925.19
2022-08-24T13:44:11.175Z,100916.16
2022-08-24T13:49:48.893Z,100907.81
2022-08-24T13:55:23.308Z,100910.72
2022-08-24T14:00:50.278Z,100902.06
2022-08-24T14:06:28.724Z,100895.44
2022-08-24T14:12:15.732Z,100895.38
2022-08-24T14:17:55.579Z,100904.44
2022-08-24T14:23:31.404Z,100897.84
2022-08-24T14:29:16.050Z,100896.44
2022-08-24T14:34:44.942Z,100898.53
2022-08-24T14:40:17.226Z,100900.91
2022-08-24T14:45:46.764Z,100899.66
2022-08-24T14:51:14.426Z,100903.78
2022-08-24T14:56:50.830Z,100900.34
2022-08-24T15:02:33.866Z,100904.34
2022-08-24T15:07:58.897Z,100898.56
2022-08-24T15:13:28.301Z,100907.75
2022-08-24T15:18:59.010Z,100905.50
2022-08-24T15:24:28.433Z,100908.13
2022-08-24T15:29:57.025Z,100896.88
2022-08-24T15:35:26.815Z,100898.09
2022-08-24T15:41:03.756Z,100908.78
2022-08-24T15:46:43.101Z,100901.88
2022-08-24T15:52:08.953Z,100909.41
2022-08-24T15:57:35.719Z,100898.25
2022-08-24T16:03:20.124Z,100907.22
2022-08-24T16:08:55.316Z,100909.03
2022-08-24T16:14:26.119Z,100909.19
2022-08-24T16:19:53.307Z,100912.53
2022-08-24T16:25:19.501Z,100927.63
2022-08-24T16:30:45.712Z,100920.59
2022-08-24T16:36:12.829Z,100929.41
2022-08-24T16:41:38.838Z,100922.09
2022-08-24T16:47:06.235Z,100930.75
2022-08-24T16:52:35.393Z,100944.00
2022-08-24T16:58:01.543Z,100938.63
2022-08-24T17:03:25.798Z,100948.81
2022-08-24T17:08:50.947Z,100950.56
2022-08-24T17:14:19.719Z,100958.47
2022-08-24T17:19:43.596Z,100967.41
2022-08-24T17:25:09.377Z,100973.34
2022-08-24T17:30:33.321Z,100976.31
2022-08-24T17:35:58.801Z,100969.41
2022-08-24T17:41:25.409Z,100967.94
2022-08-24T17:46:51.204Z,100973.19
2022-08-24T17:52:15.315Z,100964.78
2022-08-24T17:57:46.845Z,100969.81
2022-08-24T18:03:16.579Z,100970.44
2022-08-24T18:08:42.578Z,100969.28
2022-08-24T18:14:08.720Z,100978.47
2022-08-24T18:19:36.496Z,100971.38
2022-08-24T18:25:00.417Z,100970.75
2022-08-24T18:30:30.288Z,100970.81
2022-08-24T18:35:55.277Z,100968.50
2022-08-24T18:41:22.105Z,100959.72
2022-08-24T18:46:49.067Z,100965.44
2022-08-24T18:52:16.528Z,100967.16
2022-08-24T18:57:40.371Z,100956.88
2022-08-24T19:03:07.784Z,100961.00
2022-08-24T19:08:31.937Z,100958.50
2022-08-24T19:13:56.596Z,100963.72
2022-08-24T19:19:26.485Z,100957.66
2022-08-24T19:24:50.924Z,100954.28
2022-08-24T19:30:15.220Z,100958.63
2022-08-24T19:35:40.178Z,100962.97
2022-08-24T19:41:11.641Z,100958.84
2022-08-24T19:46:39.296Z,100957.41
2022-08-24T19:52:04.660Z,100965.84
2022-08-24T19:57:37.061Z,100959.06
2022-08-24T20:03:01.924Z,100957.09
2022-08-24T20:08:27.267Z,100956.19
2022-08-24T20:13:56.037Z,100949.84
2022-08-24T20:19:20.441Z,100953.88
2022-08-24T20:24:45.646Z,100949.94
2022-08-24T20:30:10.866Z,100948.50
2022-08-24T20:35:35.788Z,100954.16
2022-08-24T20:41:01.360Z,100941.47
2022-08-24T20:46:28.651Z,100949.28
2022-08-24T20:51:52.593Z,100939.94
2022-08-24T20:57:20.619Z,100932.22
2022-08-24T21:02:44.396Z,100932.38
2022-08-24T21:08:08.942Z,100929.47
2022-08-24T21:13:35.232Z,100928.28
2022-08-24T21:18:58.962Z,100929.56
2022-08-24T21:24:27.604Z,100943.09
2022-08-24T21:29:53.521Z,100939.66
2022-08-24T21:35:18.147Z,100936.72
2022-08-24T21:40:44.856Z,100919.75
2022-08-24T21:46:10.228Z,100923.59
2022-08-24T21:51:34.920Z,100913.88
2022-08-24T21:56:59.200Z,100908.59
2022-08-24T22:02:25.630Z,100901.41
2022-08-24T22:07:52.125Z,100898.09
2022-08-24T22:13:16.403Z,100899.06
2022-08-24T22:18:43.036Z,100895.47
2022-08-24T22:24:07.099Z,100888.28
2022-08-24T22:29:31.712Z,100889.56
2022-08-24T22:34:59.533Z,100879.91
2022-08-24T22:40:24.465Z,100879.63
2022-08-24T22:45:50.437Z,100878.00
2022-08-24T22:51:16.102Z,100877.09
2022-08-24T22:56:45.041Z,100875.56
2022-08-24T23:02:09.663Z,100881.34
2022-08-24T23:07:35.651Z,100881.44
2022-08-24T23:13:00.229Z,100867.91
2022-08-24T23:18:41.678Z,100874.84
2022-08-24T23:24:07.674Z,100873.78
2022-08-24T23:29:31.848Z,100879.03
2022-08-24T23:34:56.890Z,100876.94
2022-08-24T23:40:22.337Z,100874.50
2022-08-24T23:45:46.634Z,100878.97
2022-08-24T23:51:11.332Z,100886.25
2022-08-24T23:56:38.464Z,100880.72
